createdAt,value
2022-12-11T00:02:58.045Z,43.15
2022-12-11T00:05:25.830Z,43.55
2022-12-11T00:07:53.657Z,42.60
2022-12-11T00:10:21.465Z,40.88
2022-12-11T00:12:49.225Z,45.70
2022-12-11T00:15:18.603Z,41.55
2022-12-11T00:20:14.007Z,53.58
2022-12-11T00:22:41.805Z,44.33
2022-12-11T00:25:10.399Z,44.80
2022-12-11T00:27:39.068Z,43.38
2022-12-11T00:30:08.190Z,43.70
2022-12-11T00:32:37.887Z,48.75
2022-12-11T00:35:06.294Z,43.40
2022-12-11T00:37:34.124Z,46.53
2022-12-11T00:40:01.963Z,44.17
2022-12-11T00:42:29.701Z,47.13
2022-12-11T00:44:57.820Z,48.00
2022-12-11T00:47:25.577Z,43.10
2022-12-11T00:49:54.660Z,45.92
2022-12-11T00:52:22.408Z,44.03
2022-12-11T00:54:50.178Z,47.33
2022-12-11T00:57:17.961Z,41.05
2022-12-11T00:59:45.751Z,47.38
2022-12-11T01:02:13.692Z,42.38
2022-12-11T01:04:41.457Z,43.95
2022-12-11T01:07:10.703Z,34.17
2022-12-11T01:09:55.850Z,40.20
2022-12-11T01:12:23.630Z,44.30
2022-12-11T01:14:52.123Z,42.78
2022-12-11T01:17:19.930Z,43.00
2022-12-11T01:19:47.842Z,42.30
2022-12-11T01:22:16.929Z,42.17
2022-12-11T01:24:47.840Z,46.22
2022-12-11T01:27:15.644Z,45.00
2022-12-11T01:29:43.446Z,43.08
2022-12-11T01:32:11.236Z,43.67
2022-12-11T01:34:42.160Z,38.08
2022-12-11T01:37:09.965Z,41.97
2022-12-11T01:39:39.468Z,43.03
2022-12-11T01:42:10.305Z,36.13
2022-12-11T01:45:27.450Z,35.97
2022-12-11T01:47:59.354Z,34.72
2022-12-11T01:50:27.319Z,33.05
2022-12-11T01:52:55.183Z,35.08
2022-12-11T01:55:24.388Z,34.88
2022-12-11T01:57:53.951Z,34.33
2022-12-11T02:00:22.485Z,35.45
2022-12-11T02:02:50.320Z,35.90
2022-12-11T02:05:18.181Z,33.17
2022-12-11T02:07:50.547Z,33.30
2022-12-11T02:10:18.650Z,40.58
2022-12-11T02:12:58.563Z,28.40
2022-12-11T02:15:36.772Z,34.83
2022-12-11T02:18:15.083Z,33.13
2022-12-11T02:20:47.335Z,38.57
2022-12-11T02:23:48.439Z,36.75
2022-12-11T02:26:32.617Z,33.83
2022-12-11T02:29:03.706Z,33.67
2022-12-11T02:31:38.228Z,35.50
2022-12-11T02:34:10.990Z,28.05
2022-12-11T02:36:42.599Z,33.20
2022-12-11T02:39:13.316Z,39.17
2022-12-11T02:41:43.937Z,39.83
2022-12-11T02:44:16.120Z,38.80
2022-12-11T02:46:45.233Z,38.08
2022-12-11T02:49:14.489Z,32.60
2022-12-11T02:51:43.528Z,35.05
2022-12-11T02:54:16.876Z,39.85
2022-12-11T02:56:47.677Z,44.25
2022-12-11T02:59:22.447Z,35.38
2022-12-11T03:01:50.436Z,40.88
2022-12-11T03:04:18.499Z,38.58
2022-12-11T03:06:50.244Z,40.55
2022-12-11T03:09:18.016Z,45.25
2022-12-11T03:11:45.946Z,42.17
2022-12-11T03:14:14.694Z,43.15
2022-12-11T03:16:51.476Z,40.33
2022-12-11T03:19:25.196Z,41.40
2022-12-11T03:21:56.595Z,38.80
2022-12-11T03:24:31.472Z,38.47
2022-12-11T03:27:04.546Z,33.75
2022-12-11T03:29:39.909Z,35.55
2022-12-11T03:32:12.638Z,36.83
2022-12-11T03:34:45.893Z,34.42
2022-12-11T03:37:15.177Z,37.20
2022-12-11T03:42:14.893Z,33.83
2022-12-11T03:44:45.345Z,30.05
2022-12-11T03:47:18.489Z,28.45
2022-12-11T03:49:47.534Z,26.98
2022-12-11T03:52:16.837Z,29.17
2022-12-11T03:54:48.646Z,25.92
2022-12-11T03:57:23.330Z,27.05
2022-12-11T03:59:51.216Z,26.08
2022-12-11T04:02:20.293Z,29.48
2022-12-11T04:04:48.055Z,27.10
2022-12-11T04:07:15.834Z,28.85
2022-12-11T04:09:43.634Z,22.95
2022-12-11T04:12:11.399Z,25.27
2022-12-11T04:14:56.491Z,23.52
2022-12-11T04:17:43.272Z,25.23
2022-12-11T04:20:29.696Z,27.80
2022-12-11T04:23:14.898Z,27.48
2022-12-11T04:25:42.699Z,24.38
2022-12-11T04:28:10.484Z,25.58
2022-12-11T04:30:38.218Z,22.00
2022-12-11T04:33:07.282Z,22.13
2022-12-11T04:35:35.023Z,20.05
2022-12-11T04:38:02.803Z,20.13
2022-12-11T04:40:30.549Z,20.63
2022-12-11T04:42:58.300Z,20.23
2022-12-11T04:45:26.046Z,24.85
2022-12-11T04:47:53.747Z,21.27
2022-12-11T04:50:23.037Z,21.35
2022-12-11T04:55:18.720Z,23.40
2022-12-11T04:57:46.633Z,21.10
2022-12-11T05:00:15.422Z,21.02
2022-12-11T05:02:43.812Z,17.48
2022-12-11T05:05:12.259Z,18.60
2022-12-11T05:07:42.064Z,21.55
2022-12-11T05:10:11.245Z,20.50
2022-12-11T05:12:39.090Z,19.15
2022-12-11T05:15:08.546Z,16.08
2022-12-11T05:17:36.479Z,15.25
2022-12-11T05:20:04.822Z,17.13
2022-12-11T05:22:32.868Z,15.57
2022-12-11T05:25:01.938Z,16.45
2022-12-11T05:27:29.693Z,15.20
2022-12-11T05:29:59.571Z,14.93
2022-12-11T05:32:27.880Z,19.25
2022-12-11T05:34:56.154Z,18.05
2022-12-11T05:37:24.013Z,15.95
2022-12-11T05:39:51.720Z,15.20
2022-12-11T05:42:24.101Z,14.05
2022-12-11T05:44:56.241Z,15.38
2022-12-11T05:47:23.962Z,19.42
2022-12-11T05:49:51.696Z,12.13
2022-12-11T05:52:19.541Z,15.45
2022-12-11T05:54:49.700Z,16.67
2022-12-11T05:57:17.476Z,19.92
2022-12-11T05:59:46.571Z,16.85
2022-12-11T06:02:14.396Z,17.50
2022-12-11T06:04:42.281Z,18.95
2022-12-11T06:07:10.027Z,17.00
2022-12-11T06:09:37.776Z,15.52
2022-12-11T06:12:05.836Z,17.73
2022-12-11T06:14:33.607Z,18.70
2022-12-11T06:17:02.678Z,21.02
2022-12-11T06:19:36.398Z,20.15
2022-12-11T06:22:04.857Z,19.52
2022-12-11T06:24:32.606Z,15.80
2022-12-11T06:27:00.394Z,17.10
2022-12-11T06:29:30.463Z,18.75
2022-12-11T06:31:58.262Z,15.10
2022-12-11T06:34:27.488Z,20.98
2022-12-11T06:36:55.247Z,19.45
2022-12-11T06:39:23.044Z,18.00
2022-12-11T06:41:50.780Z,18.77
2022-12-11T06:44:18.535Z,19.85
2022-12-11T06:46:46.290Z,22.75
2022-12-11T06:49:14.033Z,21.38
2022-12-11T06:51:43.137Z,19.25
2022-12-11T06:54:10.885Z,20.92
2022-12-11T06:56:38.629Z,19.67
2022-12-11T06:59:07.727Z,17.70
2022-12-11T07:01:35.544Z,18.83
2022-12-11T07:04:03.281Z,18.02
2022-12-11T07:06:31.169Z,21.23
2022-12-11T07:09:00.315Z,21.42
2022-12-11T07:11:28.114Z,19.10
2022-12-11T07:13:55.880Z,23.60
2022-12-11T07:16:25.739Z,21.60
2022-12-11T07:18:53.673Z,19.55
2022-12-11T07:21:21.890Z,20.02
2022-12-11T07:23:50.643Z,18.30
2022-12-11T07:26:21.577Z,20.58
2022-12-11T07:28:50.184Z,18.00
2022-12-11T07:31:21.948Z,18.83
2022-12-11T07:33:54.924Z,19.20
2022-12-11T07:36:23.043Z,16.50
2022-12-11T07:38:50.946Z,17.60
2022-12-11T07:41:20.398Z,19.08
2022-12-11T07:43:54.038Z,16.00
2022-12-11T07:46:23.877Z,15.82
2022-12-11T07:48:51.960Z,17.70
2022-12-11T07:51:22.744Z,16.27
2022-12-11T07:53:51.528Z,17.55
2022-12-11T07:56:20.882Z,17.65
2022-12-11T08:01:18.579Z,17.20
2022-12-11T08:03:46.438Z,15.85
2022-12-11T08:06:14.502Z,16.92
2022-12-11T08:08:42.902Z,17.42
2022-12-11T08:11:12.541Z,18.63
2022-12-11T08:13:42.260Z,18.05
2022-12-11T08:16:13.061Z,16.17
2022-12-11T08:18:41.827Z,18.52
2022-12-11T08:21:10.995Z,20.33
2022-12-11T08:23:38.796Z,18.45
2022-12-11T08:26:08.438Z,19.25
2022-12-11T08:31:07.661Z,18.55
2022-12-11T08:33:36.372Z,19.48
2022-12-11T08:36:04.796Z,25.25
2022-12-11T08:38:32.580Z,18.77
2022-12-11T08:41:00.526Z,17.98
2022-12-11T08:43:28.223Z,19.92
2022-12-11T08:45:56.030Z,14.95
2022-12-11T08:48:25.205Z,16.20
2022-12-11T08:50:52.976Z,20.40
2022-12-11T08:53:20.720Z,18.85
2022-12-11T08:55:48.482Z,17.48
2022-12-11T08:58:16.236Z,15.27
2022-12-11T09:00:43.947Z,14.80
2022-12-11T09:03:13.074Z,18.05
2022-12-11T09:05:42.275Z,16.35
2022-12-11T09:08:10.081Z,12.50
2022-12-11T09:10:37.884Z,13.95
2022-12-11T09:13:05.761Z,15.68
2022-12-11T09:15:33.556Z,16.95
2022-12-11T09:18:01.320Z,14.18
2022-12-11T09:20:29.047Z,13.65
2022-12-11T09:22:58.133Z,13.48
2022-12-11T09:25:25.878Z,13.02
2022-12-11T09:27:53.655Z,11.85
2022-12-11T09:30:21.694Z,11.70
2022-12-11T09:32:49.457Z,11.80
2022-12-11T09:35:17.421Z,15.15
2022-12-11T09:37:45.173Z,12.38
2022-12-11T09:40:14.861Z,10.98
2022-12-11T09:42:51.847Z,11.80
2022-12-11T09:45:20.085Z,13.20
2022-12-11T09:47:51.026Z,13.18
2022-12-11T09:50:22.119Z,11.68
2022-12-11T09:53:00.878Z,13.48
2022-12-11T09:55:36.163Z,11.35
2022-12-11T09:58:12.294Z,14.73
2022-12-11T10:00:42.689Z,13.73
2022-12-11T10:03:32.849Z,13.18
2022-12-11T10:06:06.734Z,11.50
2022-12-11T10:08:41.129Z,13.02
2022-12-11T10:11:25.721Z,12.50
2022-12-11T10:14:02.911Z,12.27
2022-12-11T10:16:37.720Z,11.82
2022-12-11T10:19:05.790Z,12.25
2022-12-11T10:21:40.980Z,11.35
2022-12-11T10:24:40.819Z,11.65
2022-12-11T10:27:15.951Z,12.85
2022-12-11T10:29:44.014Z,11.77
2022-12-11T10:32:21.596Z,11.63
2022-12-11T10:34:54.129Z,11.77
2022-12-11T10:37:21.980Z,13.23
2022-12-11T10:39:49.760Z,12.55
2022-12-11T10:42:21.554Z,12.10
2022-12-11T10:45:00.502Z,15.05
2022-12-11T10:47:28.346Z,12.88
2022-12-11T10:49:58.305Z,16.27
2022-12-11T10:52:28.464Z,14.25
2022-12-11T10:55:00.696Z,17.27
2022-12-11T10:57:33.332Z,15.48
2022-12-11T11:00:01.709Z,12.68
2022-12-11T11:02:33.077Z,12.93
2022-12-11T11:05:02.559Z,17.25
2022-12-11T11:10:15.050Z,13.18
2022-12-11T11:12:45.861Z,15.40
2022-12-11T11:15:16.460Z,14.40
2022-12-11T11:17:54.554Z,16.35
2022-12-11T11:20:25.469Z,15.50
2022-12-11T11:22:56.010Z,16.50
2022-12-11T11:25:25.759Z,16.45
2022-12-11T11:27:57.262Z,12.52
2022-12-11T11:30:27.230Z,16.05
2022-12-11T11:32:57.526Z,15.70
2022-12-11T11:35:27.230Z,12.95
2022-12-11T11:38:01.514Z,11.23
2022-12-11T11:40:31.772Z,16.42
2022-12-11T11:43:08.744Z,12.07
2022-12-11T11:45:43.995Z,13.93
2022-12-11T11:48:21.323Z,14.88
2022-12-11T11:50:52.026Z,15.60
2022-12-11T11:53:25.354Z,15.23
2022-12-11T11:56:02.658Z,12.98
2022-12-11T11:58:40.591Z,14.40
2022-12-11T12:01:15.525Z,13.77
2022-12-11T12:03:43.395Z,15.35
2022-12-11T12:06:18.875Z,12.43
2022-12-11T12:08:56.463Z,14.85
2022-12-11T12:11:33.671Z,16.67
2022-12-11T12:14:35.834Z,12.45
2022-12-11T12:17:10.828Z,11.68
2022-12-11T12:19:47.982Z,14.00
2022-12-11T12:22:36.298Z,14.30
2022-12-11T12:25:17.460Z,14.05
2022-12-11T12:27:53.050Z,12.20
2022-12-11T12:30:23.828Z,12.60
2022-12-11T12:33:05.386Z,13.57
2022-12-11T12:35:36.720Z,12.35
2022-12-11T12:38:12.205Z,13.52
2022-12-11T12:40:52.775Z,77.50
2022-12-11T12:43:38.126Z,77.00
2022-12-11T12:46:16.265Z,33.20
2022-12-11T12:48:45.998Z,333.40
2022-12-11T12:51:15.594Z,274.20
2022-12-11T12:53:48.506Z,72.68
2022-12-11T12:56:17.620Z,30.10
2022-12-11T12:58:47.256Z,18.08
2022-12-11T13:01:20.371Z,23.45
2022-12-11T13:03:55.379Z,17.00
2022-12-11T13:06:32.127Z,16.83
2022-12-11T13:09:13.322Z,17.20
2022-12-11T13:11:41.183Z,14.30
2022-12-11T13:14:27.094Z,14.27
2022-12-11T13:17:07.489Z,21.88
2022-12-11T13:19:42.138Z,16.88
2022-12-11T13:22:23.088Z,16.02
2022-12-11T13:24:59.737Z,17.75
2022-12-11T13:27:38.338Z,14.27
2022-12-11T13:30:21.628Z,17.77
2022-12-11T13:33:01.882Z,13.68
2022-12-11T13:35:30.465Z,12.60
2022-12-11T13:38:05.315Z,15.88
2022-12-11T13:40:39.482Z,18.45
2022-12-11T13:43:11.155Z,16.30
2022-12-11T13:45:46.810Z,17.20
2022-12-11T13:48:23.286Z,14.50
2022-12-11T13:50:52.554Z,14.50
2022-12-11T13:53:21.273Z,28.60
2022-12-11T13:55:58.343Z,14.30
2022-12-11T13:58:26.673Z,24.20
2022-12-11T14:01:03.955Z,14.63
2022-12-11T14:03:33.749Z,14.25
2022-12-11T14:06:02.851Z,15.70
2022-12-11T14:08:35.314Z,13.48
2022-12-11T14:11:03.662Z,15.45
2022-12-11T14:13:35.121Z,20.40
2022-12-11T14:16:04.046Z,14.45
2022-12-11T14:18:36.348Z,16.98
2022-12-11T14:21:06.230Z,17.25
2022-12-11T14:23:35.138Z,14.13
2022-12-11T14:26:04.972Z,15.65
2022-12-11T14:28:39.337Z,38.45
2022-12-11T14:31:07.917Z,20.95
2022-12-11T14:33:42.005Z,17.95
2022-12-11T14:36:10.953Z,16.35
2022-12-11T14:38:44.329Z,19.58
2022-12-11T14:41:17.595Z,16.60
2022-12-11T14:43:49.068Z,29.08
2022-12-11T14:46:19.836Z,16.50
2022-12-11T14:49:00.831Z,14.00
2022-12-11T14:51:32.307Z,14.80
2022-12-11T14:54:00.537Z,30.52
2022-12-11T14:56:30.636Z,20.90
2022-12-11T14:59:01.375Z,18.02
2022-12-11T15:01:31.203Z,21.52
2022-12-11T15:04:17.245Z,32.58
2022-12-11T15:06:47.035Z,26.15
2022-12-11T15:09:22.851Z,18.85
2022-12-11T15:11:52.071Z,25.25
2022-12-11T15:14:21.666Z,20.33
2022-12-11T15:16:51.521Z,13.98
2022-12-11T15:19:24.437Z,16.63
2022-12-11T15:21:53.158Z,19.40
2022-12-11T15:24:31.396Z,19.40
2022-12-11T15:27:01.099Z,19.13
2022-12-11T15:29:35.025Z,20.95
2022-12-11T15:32:18.933Z,14.77
2022-12-11T15:34:49.980Z,18.25
2022-12-11T15:37:25.941Z,15.73
2022-12-11T15:39:55.138Z,16.50
2022-12-11T15:42:27.074Z,18.70
2022-12-11T15:44:56.362Z,16.00
2022-12-11T15:47:26.456Z,15.82
2022-12-11T15:49:59.360Z,20.50
2022-12-11T15:52:27.187Z,20.60
2022-12-11T15:54:55.226Z,19.00
2022-12-11T15:57:25.279Z,20.25
2022-12-11T15:59:54.836Z,18.58
2022-12-11T16:02:24.219Z,20.83
2022-12-11T16:04:52.145Z,19.85
2022-12-11T16:07:23.749Z,18.23
2022-12-11T16:09:51.825Z,21.20
2022-12-11T16:12:20.315Z,26.83
2022-12-11T16:14:48.143Z,23.48
2022-12-11T16:17:16.834Z,27.63
2022-12-11T16:19:45.448Z,26.10
2022-12-11T16:22:14.502Z,26.85
2022-12-11T16:24:44.255Z,27.40
2022-12-11T16:27:12.115Z,28.13
2022-12-11T16:29:42.611Z,24.90
2022-12-11T16:32:11.108Z,26.05
2022-12-11T16:34:39.393Z,28.48
2022-12-11T16:37:08.206Z,27.42
2022-12-11T16:39:36.800Z,31.73
2022-12-11T16:42:06.586Z,28.50
2022-12-11T16:44:37.258Z,27.67
2022-12-11T16:47:07.391Z,25.23
2022-12-11T16:49:35.190Z,24.88
2022-12-11T16:52:02.963Z,28.70
2022-12-11T16:54:30.747Z,31.25
2022-12-11T16:56:58.530Z,38.97
2022-12-11T16:59:29.953Z,32.38
2022-12-11T17:02:00.141Z,28.35
2022-12-11T17:04:28.674Z,28.20
2022-12-11T17:06:56.441Z,24.88
2022-12-11T17:09:24.233Z,23.52
2022-12-11T17:11:54.699Z,30.90
2022-12-11T17:14:22.610Z,30.30
2022-12-11T17:16:52.004Z,28.40
2022-12-11T17:19:21.005Z,28.63
2022-12-11T17:21:51.638Z,30.55
2022-12-11T17:24:19.756Z,30.65
2022-12-11T17:26:47.738Z,47.65
2022-12-11T17:29:15.613Z,82.53
2022-12-11T17:31:43.456Z,33.13
2022-12-11T17:34:12.660Z,34.75
2022-12-11T17:36:40.448Z,35.42
2022-12-11T17:39:08.334Z,45.70
2022-12-11T17:41:36.112Z,54.78
2022-12-11T17:44:04.050Z,54.78
2022-12-11T17:46:31.966Z,50.92
2022-12-11T17:49:00.218Z,50.55
2022-12-11T17:51:29.477Z,64.50
2022-12-11T17:53:57.674Z,66.90
2022-12-11T17:56:26.261Z,46.33
2022-12-11T17:58:54.134Z,69.68
2022-12-11T18:01:22.011Z,57.65
2022-12-11T18:03:49.895Z,62.28
2022-12-11T18:06:18.040Z,56.30
2022-12-11T18:08:47.190Z,50.42
2022-12-11T18:11:17.477Z,50.53
2022-12-11T18:13:46.643Z,39.92
2022-12-11T18:16:17.229Z,41.95
2022-12-11T18:18:45.822Z,44.60
2022-12-11T18:21:14.417Z,37.15
2022-12-11T18:23:42.251Z,51.78
2022-12-11T18:26:14.356Z,40.13
2022-12-11T18:28:42.443Z,41.33
2022-12-11T18:31:11.062Z,40.90
2022-12-11T18:33:39.866Z,37.00
2022-12-11T18:36:08.847Z,37.80
2022-12-11T18:38:37.573Z,30.77
2022-12-11T18:41:06.359Z,35.00
2022-12-11T18:43:36.159Z,39.60
2022-12-11T18:46:06.726Z,32.70
2022-12-11T18:48:34.595Z,31.52
2022-12-11T18:51:02.379Z,34.35
2022-12-11T18:53:30.104Z,34.88
2022-12-11T18:56:00.577Z,34.75
2022-12-11T18:58:28.634Z,35.80
2022-12-11T19:00:57.769Z,35.25
2022-12-11T19:03:25.594Z,37.80
2022-12-11T19:05:53.389Z,38.50
2022-12-11T19:08:22.076Z,37.58
2022-12-11T19:10:50.037Z,37.88
2022-12-11T19:13:17.840Z,38.67
2022-12-11T19:15:45.665Z,35.25
2022-12-11T19:18:14.877Z,33.22
2022-12-11T19:21:02.837Z,34.00
2022-12-11T19:23:32.174Z,37.83
2022-12-11T19:25:59.966Z,32.15
2022-12-11T19:28:27.805Z,30.98
2022-12-11T19:30:55.697Z,36.33
2022-12-11T19:33:24.916Z,32.95
2022-12-11T19:36:01.737Z,31.83
2022-12-11T19:38:29.621Z,34.00
2022-12-11T19:40:57.429Z,34.03
2022-12-11T19:43:25.245Z,32.47
2022-12-11T19:45:53.050Z,35.65
2022-12-11T19:48:20.874Z,27.10
2022-12-11T19:50:50.099Z,34.72
2022-12-11T19:53:17.868Z,29.55
2022-12-11T19:55:50.715Z,31.13
2022-12-11T19:58:18.644Z,28.98
2022-12-11T20:00:46.516Z,28.75
2022-12-11T20:03:14.870Z,27.27
2022-12-11T20:05:43.039Z,22.47
2022-12-11T20:08:43.127Z,24.27
2022-12-11T20:11:05.351Z,24.10
2022-12-11T20:13:36.390Z,26.75
2022-12-11T20:16:07.259Z,24.30
2022-12-11T20:18:35.236Z,21.88
2022-12-11T20:21:03.429Z,31.33
2022-12-11T20:23:32.890Z,25.05
2022-12-11T20:26:00.690Z,20.42
2022-12-11T20:28:28.461Z,23.23
2022-12-11T20:30:56.260Z,23.55
2022-12-11T20:33:24.020Z,28.27
2022-12-11T20:35:51.787Z,22.13
2022-12-11T20:38:20.944Z,34.92
2022-12-11T20:40:50.120Z,29.38
2022-12-11T20:43:17.898Z,39.65
2022-12-11T20:45:48.508Z,25.30
2022-12-11T20:48:16.737Z,25.08
2022-12-11T20:50:44.889Z,21.35
2022-12-11T20:53:12.683Z,25.50
2022-12-11T20:55:40.952Z,23.85
2022-12-11T20:58:10.742Z,26.52
2022-12-11T21:00:39.686Z,22.13
2022-12-11T21:03:08.040Z,23.20
2022-12-11T21:05:41.177Z,25.33
2022-12-11T21:08:09.216Z,28.38
2022-12-11T21:10:37.860Z,25.55
2022-12-11T21:13:05.637Z,25.70
2022-12-11T21:15:36.172Z,26.00
2022-12-11T21:18:04.375Z,27.13
2022-12-11T21:20:32.152Z,34.47
2022-12-11T21:23:00.020Z,46.47
2022-12-11T21:25:27.923Z,52.72
2022-12-11T21:27:55.698Z,41.60
2022-12-11T21:30:23.442Z,33.97
2022-12-11T21:32:53.162Z,25.58
2022-12-11T21:35:21.696Z,31.40
2022-12-11T21:37:49.761Z,26.42
2022-12-11T21:40:17.600Z,22.70
2022-12-11T21:42:45.658Z,22.55
2022-12-11T21:48:02.554Z,24.45
2022-12-11T21:50:30.299Z,35.55
2022-12-11T21:52:58.914Z,37.17
2022-12-11T21:55:26.746Z,46.20
2022-12-11T21:57:55.373Z,27.25
2022-12-11T22:00:23.527Z,24.50
2022-12-11T22:02:51.804Z,23.67
2022-12-11T22:05:21.187Z,20.55
2022-12-11T22:10:16.669Z,26.48
2022-12-11T22:12:44.477Z,24.98
2022-12-11T22:15:12.746Z,23.02
2022-12-11T22:17:40.757Z,24.17
2022-12-11T22:20:09.398Z,21.85
2022-12-11T22:22:38.523Z,23.08
2022-12-11T22:25:07.884Z,23.50
2022-12-11T22:30:03.329Z,24.23
2022-12-11T22:32:31.163Z,35.83
2022-12-11T22:34:58.904Z,36.95
2022-12-11T22:37:26.712Z,29.70
2022-12-11T22:39:55.971Z,31.85
2022-12-11T22:42:23.771Z,21.75
2022-12-11T22:44:51.530Z,24.20
2022-12-11T22:47:19.545Z,25.02
2022-12-11T22:49:47.396Z,24.90
2022-12-11T22:52:15.211Z,26.55
2022-12-11T22:54:43.615Z,23.60
2022-12-11T22:57:14.160Z,22.23
2022-12-11T22:59:42.263Z,22.05
2022-12-11T23:02:10.105Z,23.52
2022-12-11T23:04:39.558Z,26.63
2022-12-11T23:07:07.885Z,29.98
2022-12-11T23:09:35.711Z,32.78
2022-12-11T23:12:03.529Z,25.88
2022-12-11T23:14:32.676Z,25.75
2022-12-11T23:17:00.657Z,24.65
2022-12-11T23:19:28.542Z,25.52
2022-12-11T23:21:56.341Z,22.50
2022-12-11T23:24:24.094Z,23.95
2022-12-11T23:26:51.907Z,22.95
2022-12-11T23:29:19.755Z,27.15
2022-12-11T23:31:48.983Z,25.65
2022-12-11T23:34:16.776Z,24.30
2022-12-11T23:36:44.581Z,35.47
2022-12-11T23:39:12.474Z,26.10
2022-12-11T23:41:42.109Z,23.80
2022-12-11T23:44:10.494Z,31.70
2022-12-11T23:46:39.166Z,22.13
2022-12-11T23:49:08.338Z,27.33
2022-12-11T23:51:36.085Z,29.50
2022-12-11T23:54:03.864Z,24.33
2022-12-11T23:56:31.689Z,28.40
2022-12-11T23:58:59.752Z,25.63
